Time;durP1;ratioP1;P1;durP2;ratioP2;P2;SDS_P1;SDS_P2;PMS_P1;PMS_P2;Temp;Humidity;BMP_temperature;BMP_pressure;BME280_temperature;BME280_humidity;BME280_pressure;Samples;Min_cycle;Max_cycle;Signal;HPM_P1;HPM_P2
2023/04/23 00:00:16;;;;;;;4.90;3.20;;;;;;;13.11;99.89;98382.16;5091680;28;20055;-46
2023/04/23 00:02:48;;;;;;;7.60;3.30;;;;;;;13.18;100.00;98380.22;5090580;28;20032;-45
2023/04/23 00:05:15;;;;;;;5.60;4.20;;;;;;;13.25;100.00;98375.66;5090512;28;20036;-46
2023/04/23 00:07:41;;;;;;;5.50;3.28;;;;;;;13.29;100.00;98368.09;5091574;28;20039;-45
2023/04/23 00:10:08;;;;;;;4.40;3.50;;;;;;;13.36;100.00;98363.56;5107215;28;20127;-45
2023/04/23 00:12:34;;;;;;;10.32;3.50;;;;;;;13.52;100.00;98364.72;5091628;28;20020;-46
2023/04/23 00:15:01;;;;;;;6.90;2.90;;;;;;;13.66;100.00;98367.97;5094178;28;20481;-46
2023/04/23 00:17:27;;;;;;;8.02;2.45;;;;;;;13.69;100.00;98370.16;5095642;28;20496;-46
2023/04/23 00:19:53;;;;;;;3.60;2.20;;;;;;;13.73;100.00;98366.84;5095318;28;20036;-45
2023/04/23 00:22:21;;;;;;;5.30;2.65;;;;;;;13.67;99.23;98359.84;5095335;28;20036;-46
2023/04/23 00:24:47;;;;;;;10.73;2.72;;;;;;;13.56;98.71;98356.16;5095247;28;20080;-46
2023/04/23 00:27:12;;;;;;;6.15;2.83;;;;;;;13.52;98.99;98348.91;5110797;28;20028;-45
2023/04/23 00:29:39;;;;;;;11.13;3.05;;;;;;;13.49;98.78;98347.53;5110909;28;20036;-45
2023/04/23 00:32:06;;;;;;;10.50;2.53;;;;;;;13.36;98.30;98353.00;5095126;28;20405;-45
2023/04/23 00:34:32;;;;;;;6.32;3.15;;;;;;;13.38;98.98;98349.16;5110937;28;20047;-46
2023/04/23 00:36:57;;;;;;;5.20;3.00;;;;;;;13.44;99.10;98339.53;5110620;28;20118;-45
2023/04/23 00:39:23;;;;;;;9.23;3.60;;;;;;;13.55;99.29;98345.84;5110722;28;20134;-46
2023/04/23 00:41:49;;;;;;;13.50;3.85;;;;;;;13.56;98.95;98334.25;5094898;28;20560;-46
2023/04/23 00:44:15;;;;;;;7.38;3.42;;;;;;;13.61;98.79;98330.94;5093617;28;20103;-45
2023/04/23 00:46:41;;;;;;;5.22;3.40;;;;;;;13.69;99.12;98339.31;5093517;28;20503;-45
2023/04/23 00:49:07;;;;;;;7.85;3.63;;;;;;;13.52;97.76;98327.81;5076557;28;20413;-45
2023/04/23 00:51:33;;;;;;;5.90;3.70;;;;;;;13.38;97.76;98321.97;5110499;28;20115;-46
2023/04/23 00:53:59;;;;;;;11.43;3.58;;;;;;;13.50;99.05;98321.97;5110721;28;20116;-45
2023/04/23 00:56:26;;;;;;;12.13;3.80;;;;;;;13.60;99.13;98316.94;5110312;28;20454;-46
2023/04/23 00:58:52;;;;;;;10.00;4.32;;;;;;;13.57;98.66;98318.22;5093358;28;20027;-46
2023/04/23 01:01:19;;;;;;;7.53;4.07;;;;;;;13.46;97.78;98311.09;5094546;28;20024;-46
2023/04/23 01:03:48;;;;;;;13.68;4.55;;;;;;;13.34;96.79;98303.19;5093233;28;20115;-46
2023/04/23 01:06:15;;;;;;;6.43;4.22;;;;;;;13.27;97.08;98307.72;5110079;28;20028;-46
2023/04/23 01:08:43;;;;;;;8.48;4.57;;;;;;;13.29;97.36;98307.50;5110128;28;20024;-45
2023/04/23 01:11:09;;;;;;;9.82;4.75;;;;;;;13.28;97.34;98313.78;5094403;28;20035;-46
2023/04/23 01:13:35;;;;;;;4.82;3.97;;;;;;;13.23;97.38;98309.19;5094392;28;20024;-46
2023/04/23 01:16:01;;;;;;;7.30;5.25;;;;;;;13.20;97.37;98307.03;5109904;28;20031;-46
2023/04/23 01:18:28;;;;;;;9.68;4.30;;;;;;;13.18;97.34;98301.97;5094233;28;20032;-46
2023/04/23 01:20:54;;;;;;;7.60;4.60;;;;;;;13.16;97.13;98298.78;5092878;28;20070;-46
2023/04/23 01:23:20;;;;;;;16.08;4.85;;;;;;;13.15;96.97;98293.72;5094094;28;20024;-46
2023/04/23 01:25:46;;;;;;;12.18;4.22;;;;;;;13.22;97.20;98297.06;5109215;28;20027;-46
2023/04/23 01:28:12;;;;;;;18.13;5.43;;;;;;;13.45;98.35;98291.03;5110027;28;20035;-46
2023/04/23 01:30:42;;;;;;;14.00;5.03;;;;;;;13.73;98.20;98287.72;5094008;28;20089;-46
2023/04/23 01:33:08;;;;;;;15.43;4.88;;;;;;;13.87;97.77;98277.72;5093889;28;20032;-46
2023/04/23 01:35:35;;;;;;;9.10;4.10;;;;;;;13.82;96.23;98282.09;5075690;28;20056;-46
2023/04/23 01:38:02;;;;;;;19.10;5.28;;;;;;;13.70;95.98;98277.63;5109488;28;20081;-46
2023/04/23 01:40:28;;;;;;;9.45;5.05;;;;;;;13.61;95.39;98270.31;5075610;28;20028;-46
2023/04/23 01:42:55;;;;;;;26.20;6.13;;;;;;;13.55;95.95;98272.81;5093819;28;20024;-45
2023/04/23 01:45:21;;;;;;;6.05;4.00;;;;;;;13.62;97.02;98277.16;5075571;28;20452;-45
2023/04/23 01:47:47;;;;;;;11.70;5.03;;;;;;;13.57;96.81;98273.38;5093644;28;20071;-45
2023/04/23 01:50:13;;;;;;;11.77;4.20;;;;;;;13.54;96.83;98273.84;5109291;28;20027;-45
2023/04/23 01:52:40;;;;;;;19.48;5.65;;;;;;;13.49;96.84;98275.56;5092307;28;20032;-45
2023/04/23 01:55:08;;;;;;;10.73;4.47;;;;;;;13.35;95.19;98273.16;5092225;28;20032;-46
2023/04/23 01:57:34;;;;;;;11.48;4.35;;;;;;;13.22;95.33;98265.44;5092349;28;20076;-46
2023/04/23 02:00:19;;;;;;;14.65;4.40;;;;;;;13.11;95.88;98264.38;5093510;28;20039;-46
2023/04/23 02:02:45;;;;;;;16.52;5.22;;;;;;;13.02;96.51;98265.75;5093463;28;20047;-46
2023/04/23 02:05:15;;;;;;;14.82;4.70;;;;;;;12.98;96.39;98265.41;5108975;28;20512;-48
2023/04/23 02:07:42;;;;;;;10.38;4.95;;;;;;;13.02;96.70;98268.38;5091892;28;20035;-48
2023/04/23 02:10:09;;;;;;;9.48;4.43;;;;;;;13.08;97.29;98258.75;5093143;28;20069;-48
2023/04/23 02:12:36;;;;;;;17.48;5.63;;;;;;;13.22;97.46;98260.19;5093132;28;20038;-49
2023/04/23 02:15:02;;;;;;;8.02;5.20;;;;;;;13.30;96.92;98251.13;5093083;28;20024;-49
2023/04/23 02:17:28;;;;;;;10.10;4.78;;;;;;;13.39;96.87;98252.41;5093083;28;20034;-48
2023/04/23 02:19:54;;;;;;;15.13;4.57;;;;;;;13.51;96.68;98247.94;5091847;28;20118;-49
2023/04/23 02:22:21;;;;;;;17.35;5.07;;;;;;;13.62;96.29;98248.16;5092904;28;20039;-49
2023/04/23 02:24:47;;;;;;;9.85;4.60;;;;;;;13.63;94.41;98249.78;5108637;28;20042;-49
2023/04/23 02:27:12;;;;;;;12.35;5.03;;;;;;;13.61;93.49;98243.94;5092828;28;20401;-49
2023/04/23 02:29:40;;;;;;;10.68;4.85;;;;;;;13.27;91.44;98248.94;5108536;28;20147;-49
2023/04/23 02:32:05;;;;;;;7.55;5.50;;;;;;;12.94;92.49;98256.34;5091529;28;20024;-49
2023/04/23 02:34:31;;;;;;;15.70;5.50;;;;;;;12.81;94.58;98258.38;5091575;28;20024;-48
2023/04/23 02:36:57;;;;;;;13.00;5.65;;;;;;;12.79;95.42;98261.22;5091760;28;20052;-49
2023/04/23 02:39:23;;;;;;;9.60;6.10;;;;;;;12.72;95.83;98263.16;5092689;28;20438;-48
2023/04/23 02:41:48;;;;;;;25.63;7.35;;;;;;;12.67;96.02;98247.22;5108306;28;20485;-49
2023/04/23 02:44:14;;;;;;;13.63;5.88;;;;;;;12.78;96.84;98254.38;5092584;28;20401;-49
2023/04/23 02:46:40;;;;;;;12.90;6.28;;;;;;;12.87;97.32;98255.63;5108051;28;20421;-49
2023/04/23 02:49:05;;;;;;;13.88;6.20;;;;;;;12.93;97.24;98256.56;5092458;28;20024;-49
2023/04/23 02:51:31;;;;;;;12.43;6.28;;;;;;;12.95;96.46;98254.50;5074233;28;20020;-49
2023/04/23 02:53:57;;;;;;;20.58;6.57;;;;;;;12.91;96.31;98251.50;5092404;28;20039;-49
2023/04/23 02:56:23;;;;;;;8.80;5.57;;;;;;;12.90;95.75;98249.94;5092371;28;20023;-48
2023/04/23 02:58:48;;;;;;;9.82;6.13;;;;;;;12.85;95.51;98244.53;5091044;28;20035;-48
2023/04/23 03:01:15;;;;;;;15.07;6.80;;;;;;;12.84;95.83;98242.94;5091121;28;20512;-48
2023/04/23 03:03:41;;;;;;;23.55;6.82;;;;;;;12.79;95.63;98242.78;5107933;28;20034;-48
2023/04/23 03:06:07;;;;;;;10.50;6.22;;;;;;;12.80;96.15;98241.78;5090822;28;20115;-48
2023/04/23 03:08:33;;;;;;;10.73;7.10;;;;;;;12.85;96.37;98241.09;5090844;28;20028;-49
2023/04/23 03:10:59;;;;;;;10.85;6.18;;;;;;;12.91;95.94;98240.97;5107752;28;20023;-48
2023/04/23 03:13:25;;;;;;;7.55;5.35;;;;;;;12.86;95.20;98235.59;5092095;28;20402;-48
2023/04/23 03:15:53;;;;;;;12.20;5.57;;;;;;;12.90;95.87;98234.13;5092119;28;20451;-48
2023/04/23 03:18:19;;;;;;;18.30;5.45;;;;;;;12.95;96.01;98236.88;5092036;28;20402;-49
2023/04/23 03:20:45;;;;;;;10.95;5.60;;;;;;;13.06;95.53;98224.75;5092028;28;20024;-48
2023/04/23 03:23:11;;;;;;;14.80;4.93;;;;;;;13.16;94.71;98219.72;5107726;28;20451;-49
2023/04/23 03:25:36;;;;;;;15.07;5.65;;;;;;;13.25;94.39;98228.09;5107806;28;20046;-48
2023/04/23 03:28:02;;;;;;;11.10;4.85;;;;;;;13.25;93.35;98222.03;5090626;28;20089;-49
2023/04/23 03:30:28;;;;;;;13.63;4.85;;;;;;;13.25;92.87;98214.91;5090703;28;20043;-48
2023/04/23 03:32:55;;;;;;;11.60;4.47;;;;;;;13.34;92.58;98210.13;5090607;28;20062;-48
2023/04/23 03:35:25;;;;;;;14.18;4.47;;;;;;;13.43;91.86;98218.50;5107294;28;20087;-49
2023/04/23 03:37:51;;;;;;;14.48;3.97;;;;;;;13.53;91.11;98213.44;5091779;28;20032;-49
2023/04/23 03:40:16;;;;;;;12.55;4.13;;;;;;;13.61;89.27;98215.72;5091860;28;20489;-48
2023/04/23 03:42:42;;;;;;;13.57;4.25;;;;;;;13.71;89.12;98217.78;5091828;28;20460;-48
2023/04/23 03:45:08;;;;;;;14.88;4.25;;;;;;;13.69;88.32;98212.72;5091741;28;20028;-49
2023/04/23 03:47:35;;;;;;;12.38;4.38;;;;;;;13.65;87.07;98211.59;5108901;28;20028;-49
2023/04/23 03:50:01;;;;;;;11.05;3.50;;;;;;;13.44;87.24;98207.72;5095855;28;20109;-49
2023/04/23 03:52:27;;;;;;;12.10;4.60;;;;;;;13.27;87.00;98214.69;5077805;28;20086;-48
2023/04/23 03:54:52;;;;;;;5.47;3.60;;;;;;;13.13;87.75;98216.75;5095848;28;20030;-49
2023/04/23 03:57:20;;;;;;;9.32;3.97;;;;;;;12.94;87.94;98213.41;5095865;28;20058;-48
2023/04/23 03:59:46;;;;;;;8.90;4.18;;;;;;;12.73;88.58;98212.09;5095719;28;20081;-48
2023/04/23 04:02:11;;;;;;;13.68;4.82;;;;;;;12.67;90.15;98210.38;5111333;28;20032;-49
2023/04/23 04:04:37;;;;;;;22.35;5.38;;;;;;;12.68;91.35;98212.78;5095691;28;20028;-49
2023/04/23 04:07:03;;;;;;;14.13;4.45;;;;;;;12.75;91.61;98202.94;5095422;28;20050;-49
2023/04/23 04:09:28;;;;;;;9.43;4.25;;;;;;;12.80;91.99;98194.38;5095510;28;20031;-48
2023/04/23 04:11:54;;;;;;;15.23;5.63;;;;;;;12.87;91.14;98189.00;5111172;28;20504;-48
2023/04/23 04:14:21;;;;;;;9.68;4.78;;;;;;;12.75;90.04;98192.41;5095483;28;20028;-48
2023/04/23 04:16:47;;;;;;;8.85;4.70;;;;;;;12.63;90.28;98190.78;5077209;28;20028;-49
2023/04/23 04:19:13;;;;;;;9.15;5.20;;;;;;;12.47;90.94;98187.75;5111112;28;20405;-48
2023/04/23 04:21:39;;;;;;;17.30;5.75;;;;;;;12.30;90.69;98178.91;5077153;28;20059;-49
2023/04/23 04:24:05;;;;;;;13.55;5.80;;;;;;;12.18;91.11;98179.66;5094097;28;20036;-48
2023/04/23 04:26:31;;;;;;;11.38;5.80;;;;;;;12.10;91.79;98177.34;5095193;28;20038;-48
2023/04/23 04:28:58;;;;;;;5.55;4.88;;;;;;;11.97;91.50;98174.88;5110953;28;20039;-48
2023/04/23 04:31:27;;;;;;;33.63;6.30;;;;;;;11.87;92.64;98182.47;5095141;28;20028;-48
2023/04/23 04:33:55;;;;;;;9.00;6.05;;;;;;;11.80;92.69;98180.72;5093768;28;20028;-48
2023/04/23 04:36:21;;;;;;;48.85;7.50;;;;;;;11.80;93.29;98185.97;5094855;28;20040;-48
2023/04/23 04:38:48;;;;;;;13.82;6.45;;;;;;;11.80;93.53;98185.19;5093715;28;20093;-48
2023/04/23 04:41:14;;;;;;;29.25;7.18;;;;;;;11.81;93.87;98186.75;5094979;28;20026;-48
2023/04/23 04:43:40;;;;;;;16.88;5.85;;;;;;;11.94;93.15;98189.28;5110571;28;20035;-48
2023/04/23 04:46:06;;;;;;;13.77;4.97;;;;;;;12.11;92.89;98194.75;5110561;28;20507;-49
2023/04/23 04:48:31;;;;;;;23.70;5.60;;;;;;;12.30;92.66;98190.22;5095111;28;20054;-48
2023/04/23 04:50:58;;;;;;;9.50;4.32;;;;;;;12.41;91.35;98190.50;5094818;28;20032;-49
2023/04/23 04:53:23;;;;;;;16.27;5.82;;;;;;;12.42;90.67;98186.84;5110563;28;20023;-48
2023/04/23 04:55:49;;;;;;;32.92;6.15;;;;;;;12.33;90.25;98184.50;5110389;28;20039;-49
2023/04/23 04:58:15;;;;;;;12.43;5.47;;;;;;;12.24;90.20;98179.81;5094759;28;20020;-48
2023/04/23 05:00:41;;;;;;;14.15;5.55;;;;;;;12.25;90.45;98184.03;5109618;28;20028;-48
2023/04/23 05:03:07;;;;;;;16.17;5.43;;;;;;;12.24;89.69;98185.06;5094539;28;20020;-48
2023/04/23 05:05:33;;;;;;;9.68;5.50;;;;;;;12.19;89.04;98176.03;5093337;28;20031;-48
2023/04/23 05:08:01;;;;;;;10.43;5.10;;;;;;;12.16;89.40;98173.81;5110050;28;20133;-49
2023/04/23 05:10:27;;;;;;;21.30;7.28;;;;;;;12.18;89.87;98179.66;5094390;28;20508;-48
2023/04/23 05:12:56;;;;;;;19.23;6.53;;;;;;;12.16;89.63;98170.41;5110015;28;20024;-48
2023/04/23 05:15:22;;;;;;;89.75;9.45;;;;;;;12.25;89.84;98178.78;5094265;28;20027;-49
2023/04/23 05:17:49;;;;;;;10.07;5.32;;;;;;;12.35;90.10;98171.13;5094254;28;20032;-48
2023/04/23 05:20:15;;;;;;;11.82;5.03;;;;;;;12.39;89.34;98177.56;5094211;28;20024;-48
2023/04/23 05:22:41;;;;;;;10.93;4.80;;;;;;;12.53;88.37;98172.91;5094211;28;20078;-49
2023/04/23 05:25:09;;;;;;;14.02;4.30;;;;;;;12.68;88.34;98175.91;5094098;28;20420;-49
2023/04/23 05:27:34;;;;;;;8.38;3.50;;;;;;;12.85;87.67;98165.50;5094024;28;20448;-48
2023/04/23 05:30:07;;;;;;;5.30;3.95;;;;;;;12.97;85.70;98168.16;5109721;28;20036;-48
2023/04/23 05:32:33;;;;;;;13.05;4.35;;;;;;;13.02;84.98;98160.38;5094036;28;20036;-49
2023/04/23 05:35:01;;;;;;;10.38;5.03;;;;;;;13.08;84.75;98167.38;5093908;28;20459;-48
2023/04/23 05:37:27;;;;;;;15.93;4.43;;;;;;;13.23;84.13;98155.56;5073935;28;20037;-48
2023/04/23 05:39:53;;;;;;;8.57;4.57;;;;;;;13.31;83.04;98157.88;5073625;28;20399;-48
2023/04/23 05:42:18;;;;;;;18.83;5.68;;;;;;;13.52;83.31;98153.81;5073623;28;20020;-49
2023/04/23 05:44:44;;;;;;;10.77;4.45;;;;;;;13.83;81.75;98154.47;5089080;28;20048;-49
2023/04/23 05:47:13;;;;;;;13.75;4.72;;;;;;;14.07;80.99;98158.59;5055456;28;20525;-48
2023/04/23 05:49:39;;;;;;;11.35;4.47;;;;;;;14.42;80.61;98151.56;5088984;28;20476;-49
2023/04/23 05:52:05;;;;;;;11.25;4.57;;;;;;;14.76;79.64;98147.91;5088895;28;20026;-49
2023/04/23 05:54:31;;;;;;;13.52;4.00;;;;;;;15.03;77.53;98160.50;5073344;28;20107;-49
2023/04/23 05:56:57;;;;;;;9.10;4.28;;;;;;;15.48;75.47;98156.06;5073237;28;20433;-46
2023/04/23 05:59:23;;;;;;;9.13;3.97;;;;;;;16.24;73.15;98158.81;5088774;28;20029;-46
2023/04/23 06:01:49;;;;;;;12.77;4.15;;;;;;;17.25;69.50;98146.63;5073114;28;20028;-46
2023/04/23 06:04:15;;;;;;;14.30;5.05;;;;;;;18.27;64.27;98146.22;5088687;28;20024;-46
2023/04/23 06:06:44;;;;;;;12.95;3.83;;;;;;;18.90;62.26;98135.38;5088819;28;20028;-46
2023/04/23 06:09:10;;;;;;;7.88;3.45;;;;;;;19.33;59.68;98135.78;5071751;28;20028;-46
2023/04/23 06:11:35;;;;;;;11.98;4.28;;;;;;;19.85;57.76;98141.75;5088853;28;20505;-47
2023/04/23 06:14:02;;;;;;;4.57;2.90;;;;;;;20.31;53.47;98146.00;5071558;28;20024;-47
2023/04/23 06:16:28;;;;;;;12.57;3.28;;;;;;;20.92;51.87;98145.53;5072899;28;20032;-46
2023/04/23 06:18:55;;;;;;;9.55;3.47;;;;;;;21.82;49.29;98137.91;5088419;28;20410;-47
2023/04/23 06:21:21;;;;;;;13.82;3.08;;;;;;;22.46;47.81;98142.91;5055259;28;20028;-45
2023/04/23 06:23:47;;;;;;;10.98;2.95;;;;;;;22.85;44.08;98139.84;5054956;28;20029;-44
2023/04/23 06:26:13;;;;;;;11.80;2.97;;;;;;;22.88;43.96;98135.81;5088139;28;20035;-45
2023/04/23 06:28:41;;;;;;;9.95;2.83;;;;;;;22.99;43.60;98144.44;5072922;28;20497;-45
2023/04/23 06:31:07;;;;;;;9.88;2.78;;;;;;;23.09;42.97;98141.59;5071275;28;20025;-44
2023/04/23 06:33:35;;;;;;;21.75;4.13;;;;;;;23.66;43.16;98134.09;5072597;28;20027;-45
2023/04/23 06:36:00;;;;;;;14.90;3.42;;;;;;;24.24;41.20;98131.78;5080834;28;20417;-45
2023/04/23 06:38:26;;;;;;;9.20;2.92;;;;;;;24.52;39.66;98116.38;5091465;28;20027;-45
2023/04/23 06:40:52;;;;;;;9.27;2.53;;;;;;;24.84;39.48;98119.91;5108351;28;20031;-45
2023/04/23 06:43:18;;;;;;;9.55;2.90;;;;;;;25.31;38.88;98117.59;5108329;28;20110;-45
2023/04/23 06:45:43;;;;;;;12.35;3.10;;;;;;;25.61;38.42;98118.59;5108158;28;20569;-45
2023/04/23 06:48:09;;;;;;;9.20;2.70;;;;;;;25.54;37.62;98104.84;5092539;28;20028;-45
2023/04/23 06:50:35;;;;;;;16.45;2.90;;;;;;;25.27;38.31;98103.19;5092444;28;20027;-45
2023/04/23 06:53:01;;;;;;;16.15;3.00;;;;;;;24.92;37.86;98103.03;5091172;28;20035;-45
2023/04/23 06:55:27;;;;;;;8.98;2.45;;;;;;;24.87;38.44;98103.97;5092481;28;20148;-45
2023/04/23 06:57:54;;;;;;;11.65;3.03;;;;;;;25.04;38.45;98105.16;5108037;28;20026;-45
2023/04/23 07:00:21;;;;;;;9.75;2.75;;;;;;;25.17;38.30;98112.28;5090988;28;20132;-45
2023/04/23 07:02:47;;;;;;;8.48;2.65;;;;;;;25.37;38.51;98107.50;5090982;28;20032;-45
2023/04/23 07:05:13;;;;;;;15.23;2.65;;;;;;;25.43;37.93;98098.19;5092279;28;20030;-45
2023/04/23 07:07:39;;;;;;;11.27;2.70;;;;;;;25.77;37.75;98112.78;5107840;28;20489;-46
2023/04/23 07:10:06;;;;;;;5.30;2.25;;;;;;;26.35;36.84;98098.13;5092146;28;20028;-45
2023/04/23 07:12:32;;;;;;;9.77;2.47;;;;;;;27.16;34.74;98090.31;5107793;28;20035;-45
2023/04/23 07:14:57;;;;;;;8.45;2.65;;;;;;;28.24;33.99;98100.56;5092094;28;20032;-45
2023/04/23 07:17:23;;;;;;;14.05;2.60;;;;;;;29.31;31.44;98091.81;5092054;28;20069;-46
2023/04/23 07:19:49;;;;;;;9.38;2.53;;;;;;;30.06;30.58;98094.84;5107732;28;20060;-46
2023/04/23 07:22:15;;;;;;;12.15;2.85;;;;;;;30.39;29.42;98091.13;5091513;28;20098;-45
2023/04/23 07:24:40;;;;;;;12.00;2.50;;;;;;;30.53;28.85;98092.63;5107669;28;20123;-46
2023/04/23 07:27:06;;;;;;;10.68;2.40;;;;;;;30.26;30.02;98093.06;5090592;28;20031;-46
2023/04/23 07:29:32;;;;;;;6.43;2.22;;;;;;;28.88;30.29;98085.81;5107636;28;20028;-45
2023/04/23 07:31:58;;;;;;;4.45;1.60;;;;;;;27.40;30.98;98089.72;5091956;28;20020;-45
2023/04/23 07:34:24;;;;;;;5.50;1.60;;;;;;;27.05;31.46;98089.88;5107607;28;20024;-45
2023/04/23 07:36:51;;;;;;;5.97;1.90;;;;;;;27.80;30.14;98090.09;5107203;28;20062;-46
2023/04/23 07:39:16;;;;;;;6.75;1.60;;;;;;;28.25;29.95;98096.75;5091864;28;20028;-46
2023/04/23 07:41:42;;;;;;;7.78;1.92;;;;;;;28.12;30.24;98095.13;5107709;28;20024;-45
2023/04/23 07:44:08;;;;;;;7.32;1.77;;;;;;;27.09;30.25;98085.44;5090623;28;20028;-45
2023/04/23 07:46:34;;;;;;;5.35;1.52;;;;;;;25.78;32.59;98085.59;5091722;28;20031;-45
2023/04/23 07:48:59;;;;;;;11.65;2.35;;;;;;;25.10;35.01;98082.41;5091799;28;20027;-46
2023/04/23 07:51:25;;;;;;;10.02;2.22;;;;;;;25.77;33.38;98080.53;5091742;28;20031;-45
2023/04/23 07:53:53;;;;;;;9.30;2.38;;;;;;;26.58;32.07;98076.41;5091682;28;20088;-45
2023/04/23 07:56:21;;;;;;;7.22;2.28;;;;;;;27.29;30.68;98065.06;5091607;28;20034;-45
2023/04/23 07:58:47;;;;;;;6.10;1.90;;;;;;;28.22;29.42;98076.63;5107329;28;20024;-45
2023/04/23 08:01:13;;;;;;;4.93;1.77;;;;;;;28.41;27.82;98067.22;5107217;28;20407;-45
2023/04/23 08:03:38;;;;;;;8.40;1.80;;;;;;;28.21;28.14;98079.63;5107219;28;20115;-45
2023/04/23 08:06:05;;;;;;;3.50;1.50;;;;;;;28.16;28.09;98069.84;5091577;28;20065;-45
2023/04/23 08:08:30;;;;;;;3.38;1.40;;;;;;;28.08;28.01;98068.00;5092142;28;20078;-45
2023/04/23 08:10:56;;;;;;;3.63;1.83;;;;;;;28.16;28.82;98069.84;5091729;28;20505;-45
2023/04/23 08:13:22;;;;;;;4.95;2.03;;;;;;;28.08;28.92;98074.19;5091546;28;20070;-45
2023/04/23 08:15:48;;;;;;;4.47;1.90;;;;;;;27.69;28.39;98060.06;5091431;28;20450;-45
2023/04/23 08:18:14;;;;;;;7.20;2.38;;;;;;;27.38;29.23;98071.19;5091579;28;20024;-45
2023/04/23 08:20:40;;;;;;;7.03;1.95;;;;;;;27.06;29.41;98069.91;5107138;28;20032;-45
2023/04/23 08:23:06;;;;;;;8.25;2.47;;;;;;;26.38;30.58;98061.69;5091465;28;20046;-45
2023/04/23 08:25:31;;;;;;;6.88;1.92;;;;;;;25.24;31.68;98085.81;5091417;28;20027;-45
2023/04/23 08:27:58;;;;;;;5.80;2.38;;;;;;;24.95;32.47;98074.78;5107045;28;20032;-45
2023/04/23 08:30:24;;;;;;;5.60;2.50;;;;;;;25.19;32.32;98071.69;5090050;28;20028;-45
2023/04/23 08:32:54;;;;;;;6.88;5.57;;;;;;;25.04;32.49;98079.06;5091379;28;20062;-45
2023/04/23 08:35:21;;;;;;;3.55;2.30;;;;;;;24.96;32.57;98069.09;5093918;28;20028;-45
2023/04/23 08:37:47;;;;;;;4.90;1.80;;;;;;;25.43;31.90;98066.72;5095121;28;20024;-45
2023/04/23 08:40:14;;;;;;;10.52;1.90;;;;;;;25.76;29.92;98060.94;5095067;28;20020;-45
2023/04/23 08:42:44;;;;;;;12.43;3.33;;;;;;;25.64;32.49;98061.56;5094968;28;20020;-45
2023/04/23 08:45:11;;;;;;;7.22;1.60;;;;;;;25.98;29.46;98056.53;5095197;28;20028;-45
2023/04/23 08:47:41;;;;;;;6.95;1.88;;;;;;;25.56;29.76;98046.22;5094768;28;20028;-45
2023/04/23 08:50:10;;;;;;;5.45;1.60;;;;;;;25.34;30.22;98054.41;5094782;28;20024;-45
2023/04/23 08:52:39;;;;;;;9.02;2.58;;;;;;;24.97;30.18;98067.19;5076810;28;20028;-45
2023/04/23 08:55:11;;;;;;;6.20;1.65;;;;;;;25.18;30.36;98052.13;5094725;28;20028;-45
2023/04/23 08:57:40;;;;;;;5.65;2.13;;;;;;;25.21;30.06;98048.84;5094662;28;20030;-45
2023/04/23 09:00:09;;;;;;;6.53;1.90;;;;;;;25.81;30.22;98051.91;5094872;28;20028;-45
2023/04/23 09:02:39;;;;;;;8.18;2.15;;;;;;;26.69;29.05;98045.34;5094807;28;20455;-46
2023/04/23 09:05:07;;;;;;;4.28;1.40;;;;;;;27.24;28.42;98041.78;5110325;28;20012;-45
2023/04/23 09:07:34;;;;;;;7.10;2.03;;;;;;;26.51;28.68;98042.69;5110356;28;20026;-45
2023/04/23 09:10:00;;;;;;;5.90;1.98;;;;;;;25.56;29.70;98040.06;5110124;28;20032;-45
2023/04/23 09:12:26;;;;;;;4.10;1.60;;;;;;;24.63;30.43;98045.28;5094454;28;20047;-45
2023/04/23 09:14:52;;;;;;;3.95;1.75;;;;;;;23.86;31.94;98027.56;5094344;28;20497;-45
2023/04/23 09:17:19;;;;;;;3.45;1.55;;;;;;;22.90;33.84;98039.97;5094318;28;20043;-45
2023/04/23 09:19:45;;;;;;;9.45;2.00;;;;;;;22.40;34.26;98055.84;5109954;28;20404;-45
2023/04/23 09:22:11;;;;;;;4.75;1.95;;;;;;;21.90;34.87;98045.63;5110009;28;20024;-44
2023/04/23 09:24:42;;;;;;;7.25;1.75;;;;;;;21.39;35.82;98033.75;5094440;28;20054;-45
2023/04/23 09:27:09;;;;;;;2.95;1.45;;;;;;;21.00;37.29;98042.75;5109895;28;20480;-44
2023/04/23 09:29:35;;;;;;;4.63;1.85;;;;;;;20.74;37.39;98035.06;5094063;28;20043;-44
2023/04/23 09:32:08;;;;;;;4.95;1.95;;;;;;;20.57;37.78;98036.53;5094033;28;20436;-44
2023/04/23 09:34:38;;;;;;;5.95;1.67;;;;;;;20.58;37.41;98038.09;5109691;28;20107;-45
2023/04/23 09:37:06;;;;;;;7.05;1.65;;;;;;;20.37;38.04;97985.00;5093768;28;20036;-45
2023/04/23 09:39:34;;;;;;;6.05;1.70;;;;;;;20.07;38.42;98028.69;5093842;28;20031;-44
2023/04/23 09:42:04;;;;;;;11.00;2.38;;;;;;;19.92;38.84;98032.25;5092567;28;20089;-44
2023/04/23 09:44:32;;;;;;;4.15;1.98;;;;;;;19.93;39.10;98020.53;5094042;28;20020;-45
2023/04/23 09:47:13;;;;;;;4.57;1.52;;;;;;;20.06;39.08;98032.41;5093468;28;20103;-44
2023/04/23 09:49:47;;;;;;;5.47;1.67;;;;;;;20.24;39.22;98025.59;5109428;28;20505;-45
2023/04/23 09:52:12;;;;;;;3.85;1.48;;;;;;;20.30;38.90;98011.97;5109365;28;20447;-45
2023/04/23 09:54:38;;;;;;;4.28;1.67;;;;;;;20.22;39.34;98025.91;5109257;28;20032;-44
2023/04/23 09:57:07;;;;;;;5.43;1.80;;;;;;;20.20;39.67;98013.91;5109559;28;20012;-45
2023/04/23 09:59:37;;;;;;;3.30;1.42;;;;;;;20.32;38.74;98020.50;5093492;28;20051;-45
2023/04/23 10:02:06;;;;;;;5.05;1.70;;;;;;;20.44;39.67;98028.09;5093448;28;20031;-44
2023/04/23 10:04:32;;;;;;;5.25;1.92;;;;;;;20.78;38.71;98015.81;5109093;28;20497;-44
2023/04/23 10:07:01;;;;;;;5.30;1.65;;;;;;;21.06;37.46;98009.59;5108920;28;20024;-44
2023/04/23 10:09:28;;;;;;;3.83;1.33;;;;;;;21.18;37.29;98008.41;5093531;28;20031;-44
2023/04/23 10:12:01;;;;;;;7.47;2.35;;;;;;;21.16;37.23;97976.66;5091900;28;20032;-45
2023/04/23 10:14:28;;;;;;;4.30;1.77;;;;;;;21.30;36.90;98003.44;5093090;28;20031;-44
2023/04/23 10:17:02;;;;;;;2.65;1.50;;;;;;;21.59;37.42;98008.69;5108858;28;20497;-45
2023/04/23 10:19:29;;;;;;;4.50;1.63;;;;;;;21.81;37.18;97996.59;5092060;28;20043;-45
2023/04/23 10:22:04;;;;;;;6.20;1.67;;;;;;;21.79;35.79;97974.75;5108777;28;20028;-45
2023/04/23 10:24:35;;;;;;;7.13;2.10;;;;;;;21.43;36.21;97975.25;5092899;28;20069;-44
2023/04/23 10:27:03;;;;;;;7.15;1.80;;;;;;;21.00;36.55;97988.63;5092859;28;20516;-45
2023/04/23 10:29:35;;;;;;;5.30;1.63;;;;;;;20.61;37.21;97979.72;5074643;28;20027;-44
2023/04/23 10:32:03;;;;;;;3.03;1.60;;;;;;;20.58;37.70;97998.13;5092809;28;20058;-45
2023/04/23 10:34:31;;;;;;;6.43;2.03;;;;;;;20.77;37.44;97995.56;5092786;28;20032;-44
2023/04/23 10:36:59;;;;;;;9.90;2.88;;;;;;;20.81;36.24;97978.69;5092529;28;20044;-44
2023/04/23 10:39:31;;;;;;;4.00;1.25;;;;;;;20.78;35.26;97995.25;5108644;28;20051;-44
2023/04/23 10:41:59;;;;;;;3.55;1.33;;;;;;;20.70;35.65;97964.66;5092757;28;20565;-44
2023/04/23 10:44:41;;;;;;;4.28;1.85;;;;;;;20.84;35.81;97985.34;5091409;28;20062;-45
2023/04/23 10:47:14;;;;;;;5.95;1.27;;;;;;;21.26;35.27;97981.88;5108193;28;20383;-45
2023/04/23 10:49:40;;;;;;;3.00;1.42;;;;;;;21.41;34.50;97970.19;5108186;28;20031;-44
2023/04/23 10:52:13;;;;;;;5.57;1.50;;;;;;;21.37;33.99;97971.03;5108209;28;20028;-45
2023/04/23 10:54:40;;;;;;;6.15;1.50;;;;;;;21.26;33.81;97965.84;5092412;28;20020;-44
2023/04/23 10:57:07;;;;;;;9.13;1.67;;;;;;;21.44;33.33;97976.88;5091806;28;20065;-45
2023/04/23 10:59:37;;;;;;;3.03;1.20;;;;;;;21.51;32.96;97970.09;5108059;28;20489;-45
2023/04/23 11:02:07;;;;;;;2.38;1.30;;;;;;;21.37;31.67;97958.50;5091137;28;20070;-44
2023/04/23 11:04:34;;;;;;;5.13;1.50;;;;;;;21.26;31.63;97955.19;5092347;28;20028;-45
2023/04/23 11:07:07;;;;;;;4.60;1.40;;;;;;;21.08;32.25;97966.63;5092175;28;20024;-45
2023/04/23 11:09:33;;;;;;;4.90;1.40;;;;;;;20.84;33.03;97972.00;5092178;28;20030;-45
2023/04/23 11:12:00;;;;;;;3.63;1.20;;;;;;;20.81;32.29;97973.38;5092195;28;20103;-45
2023/04/23 11:14:56;;;;;;;6.32;1.50;;;;;;;20.69;32.87;97975.63;5107835;28;20105;-44
2023/04/23 11:17:43;;;;;;;8.45;1.55;;;;;;;20.66;31.92;97960.97;5089714;28;20040;-45
2023/04/23 11:20:15;;;;;;;6.75;1.42;;;;;;;20.47;31.96;97960.13;5090737;28;20028;-45
2023/04/23 11:22:49;;;;;;;9.23;1.70;;;;;;;20.35;32.36;97989.81;5092025;28;20024;-44
2023/04/23 11:25:29;;;;;;;5.35;1.67;;;;;;;20.34;32.13;97985.53;5090829;28;20035;-44
2023/04/23 11:27:59;;;;;;;3.28;1.30;;;;;;;20.45;32.03;97997.72;5107638;28;20020;-44